SBCJ

Carajás Airport

Carajás, Brazil
TAF SBCJ 171000Z 1712/1724 07005KT CAVOK TN27/1712Z TX28/1717Z BECMG 1713/1715 SCT020 BECMG 1717/1719 SCT020 FEW030TCU BECMG 1721/1723 00000KT FEW0 20 RMK PEN
Issued Valid From Valid To
Dec-17 @ 10:00 UTC
(2 hours ago)
Dec-17 @ 12:00 UTC
(8 minutes ago)
Dec-18 @ 00:00 UTC
(in 12 hours)
Dec-17 @ 12:00 to Dec-17 @ 13:00
TAF SBCJ 171000Z 1712/1724 07005KT CAVOK TN27/1712Z TX28/1717Z
Wind Visibility Clouds
70° at 5 knots 10,000+ meters
  • No significant clouds
Becoming Dec-17 @ 13:00 to Dec-17 @ 17:00
BECMG 1713/1715 SCT020
Wind Visibility Clouds
70° at 5 knots 10,000+ meters
  • Scattered at 2,000' AGL
Becoming Dec-17 @ 17:00 to Dec-17 @ 21:00
BECMG 1717/1719 SCT020 FEW030TCU
Wind Visibility Clouds
70° at 5 knots 10,000+ meters
  • Scattered at 2,000' AGL
  • Few at 3,000' AGL
Becoming Dec-17 @ 21:00 to Dec-18 @ 00:00
BECMG 1721/1723 00000KT FEW0 20 RMK PEN
Visibility Clouds
10,000+ meters
  • Scattered at 2,000' AGL
  • Few at 3,000' AGL
TAF SBCJ 171000Z 1712/1724 07005KT CAVOK TN27/1712Z TX28/1717Z BECMG 1713/1715 SCT020 BECMG 1717/1719 SCT020 FEW030TCU BECMG 1721/1723 00000KT FEW0 20 RMK PEN
Issued Dec-17 @ 10:00 UTC
(2 hours ago)
Valid From Dec-17 @ 12:00 UTC
(8 minutes ago)
Valid To Dec-18 @ 00:00 UTC
(in 12 hours)
Dec-17 @ 12:00 - Dec-17 @ 13:00
Wind Visibility
70° at 5 knots 10,000+ meters
Clouds
  • No significant clouds
Becoming Dec-17 @ 13:00 - Dec-17 @ 17:00
Wind Visibility
70° at 5 knots 10,000+ meters
Clouds
  • Scattered at 2,000' AGL
Becoming Dec-17 @ 17:00 - Dec-17 @ 21:00
Wind Visibility
70° at 5 knots 10,000+ meters
Clouds
  • Scattered at 2,000' AGL
  • Few at 3,000' AGL
Becoming Dec-17 @ 21:00 - Dec-18 @ 00:00
Clouds
  • Scattered at 2,000' AGL
  • Few at 3,000' AGL